createdAt,value
2023-04-21T00:00:04.439Z,12.04
2023-04-21T00:02:39.797Z,12.11
2023-04-21T00:05:10.561Z,12.13
2023-04-21T00:07:41.810Z,12.20
2023-04-21T00:10:11.100Z,12.30
2023-04-21T00:12:39.292Z,12.28
2023-04-21T00:15:08.088Z,12.23
2023-04-21T00:17:36.725Z,12.27
2023-04-21T00:20:07.236Z,12.24
2023-04-21T00:22:35.538Z,12.28
2023-04-21T00:25:03.900Z,12.29
2023-04-21T00:27:32.335Z,12.36
2023-04-21T00:30:01.046Z,12.06
2023-04-21T00:32:29.606Z,11.95
2023-04-21T00:34:58.820Z,11.98
2023-04-21T00:37:27.106Z,12.01
2023-04-21T00:39:55.188Z,12.08
2023-04-21T00:42:23.334Z,11.98
2023-04-21T00:44:52.443Z,12.00
2023-04-21T00:47:20.626Z,12.02
2023-04-21T00:49:52.679Z,12.04
2023-04-21T00:52:20.870Z,11.92
2023-04-21T00:54:49.611Z,12.16
2023-04-21T00:57:17.826Z,12.14
2023-04-21T00:59:45.975Z,12.03
2023-04-21T01:02:16.295Z,12.15
2023-04-21T01:04:45.790Z,12.22
2023-04-21T01:07:14.684Z,12.29
2023-04-21T01:09:43.169Z,12.38
2023-04-21T01:12:11.712Z,12.41
2023-04-21T01:14:41.808Z,12.41
2023-04-21T01:17:12.281Z,12.42
2023-04-21T01:19:42.794Z,12.37
2023-04-21T01:22:12.860Z,12.37
2023-04-21T01:24:45.817Z,12.32
2023-04-21T01:27:15.333Z,12.23
2023-04-21T01:29:43.740Z,12.36
2023-04-21T01:32:13.772Z,12.47
2023-04-21T01:34:42.129Z,12.45
2023-04-21T01:37:12.765Z,12.51
2023-04-21T01:39:45.644Z,12.57
2023-04-21T01:42:13.828Z,12.23
2023-04-21T01:44:43.507Z,12.29
2023-04-21T01:47:11.714Z,12.41
2023-04-21T01:49:41.114Z,12.41
2023-04-21T01:52:09.226Z,12.21
2023-04-21T01:54:37.509Z,11.98
2023-04-21T01:57:06.995Z,11.98
2023-04-21T01:59:36.076Z,11.95
2023-04-21T02:02:04.725Z,12.26
2023-04-21T02:04:35.196Z,12.18
2023-04-21T02:07:03.616Z,12.07
2023-04-21T02:09:32.200Z,12.06
2023-04-21T02:12:00.522Z,12.07
2023-04-21T02:14:28.935Z,11.85
2023-04-21T02:16:57.564Z,11.88
2023-04-21T02:19:25.678Z,11.91
2023-04-21T02:21:56.019Z,12.02
2023-04-21T02:24:24.693Z,12.00
2023-04-21T02:26:54.232Z,12.05
2023-04-21T02:29:22.380Z,12.12
2023-04-21T02:32:00.719Z,12.04
2023-04-21T02:34:33.894Z,12.09
2023-04-21T02:37:03.028Z,12.16
2023-04-21T02:39:31.152Z,12.22
2023-04-21T02:41:59.709Z,12.21
2023-04-21T02:44:29.491Z,12.18
2023-04-21T02:46:57.824Z,12.25
2023-04-21T02:49:26.157Z,12.32
2023-04-21T02:51:55.325Z,11.88
2023-04-21T02:54:23.407Z,11.86
2023-04-21T02:56:51.620Z,12.04
2023-04-21T02:59:20.271Z,11.98
2023-04-21T03:01:49.382Z,12.01
2023-04-21T03:04:17.763Z,11.98
2023-04-21T03:06:46.169Z,11.74
2023-04-21T03:09:14.234Z,11.59
2023-04-21T03:11:42.389Z,11.73
2023-04-21T03:14:10.607Z,11.75
2023-04-21T03:16:39.045Z,11.54
2023-04-21T03:19:07.269Z,11.51
2023-04-21T03:21:38.549Z,11.62
2023-04-21T03:24:07.362Z,11.66
2023-04-21T03:26:36.416Z,11.58
2023-04-21T03:29:04.589Z,11.44
2023-04-21T03:31:32.775Z,11.36
2023-04-21T03:34:00.943Z,11.35
2023-04-21T03:36:29.296Z,11.23
2023-04-21T03:39:05.948Z,11.15
2023-04-21T03:41:41.843Z,11.09
2023-04-21T03:44:11.034Z,11.06
2023-04-21T03:46:41.128Z,11.13
2023-04-21T03:49:09.407Z,11.33
2023-04-21T03:51:38.008Z,11.33
2023-04-21T03:54:06.169Z,11.28
2023-04-21T03:56:35.918Z,11.32
2023-04-21T03:59:04.111Z,11.38
2023-04-21T04:01:33.663Z,11.37
2023-04-21T04:04:02.022Z,11.48
2023-04-21T04:06:30.626Z,11.54
2023-04-21T04:08:58.827Z,11.58
2023-04-21T04:11:26.965Z,11.36
2023-04-21T04:13:55.020Z,11.45
2023-04-21T04:16:23.338Z,11.46
2023-04-21T04:18:51.532Z,11.69
2023-04-21T04:21:19.792Z,11.63
2023-04-21T04:23:49.933Z,11.70
2023-04-21T04:26:18.961Z,11.60
2023-04-21T04:28:48.111Z,11.56
2023-04-21T04:31:17.343Z,11.45
2023-04-21T04:33:45.605Z,11.40
2023-04-21T04:36:13.747Z,11.51
2023-04-21T04:38:41.836Z,11.60
2023-04-21T04:41:09.920Z,11.63
2023-04-21T04:43:39.427Z,11.69
2023-04-21T04:46:09.549Z,11.61
2023-04-21T04:48:37.951Z,11.57
2023-04-21T04:51:06.176Z,11.53
2023-04-21T04:53:34.365Z,11.46
2023-04-21T04:56:02.725Z,11.42
2023-04-21T04:58:31.197Z,11.36
2023-04-21T05:01:17.540Z,11.34
2023-04-21T05:03:46.629Z,11.31
2023-04-21T05:06:15.061Z,11.17
2023-04-21T05:08:43.331Z,11.24
2023-04-21T05:11:11.547Z,11.22
2023-04-21T05:13:40.772Z,11.21
2023-04-21T05:16:10.324Z,11.26
2023-04-21T05:18:38.663Z,11.32
2023-04-21T05:21:07.577Z,11.36
2023-04-21T05:23:36.067Z,11.34
2023-04-21T05:26:04.901Z,11.40
2023-04-21T05:28:33.586Z,11.29
2023-04-21T05:31:01.705Z,11.17
2023-04-21T05:33:32.513Z,11.19
2023-04-21T05:36:00.668Z,11.26
2023-04-21T05:38:29.468Z,11.34
2023-04-21T05:40:57.806Z,11.45
2023-04-21T05:43:26.007Z,11.44
2023-04-21T05:45:54.606Z,11.44
2023-04-21T05:48:23.700Z,11.44
2023-04-21T05:50:51.880Z,11.48
2023-04-21T05:53:20.118Z,11.51
2023-04-21T05:55:48.442Z,11.48
2023-04-21T05:58:16.730Z,11.31
2023-04-21T06:00:47.932Z,11.38
2023-04-21T06:03:18.354Z,11.51
2023-04-21T06:05:56.377Z,11.49
2023-04-21T06:08:24.529Z,11.47
2023-04-21T06:10:55.406Z,11.49
2023-04-21T06:13:24.487Z,11.45
2023-04-21T06:15:53.305Z,11.41
2023-04-21T06:18:21.901Z,11.34
2023-04-21T06:20:52.087Z,11.20
2023-04-21T06:23:20.640Z,11.17
2023-04-21T06:26:09.612Z,11.21
2023-04-21T06:28:39.452Z,11.23
2023-04-21T06:31:18.326Z,11.16
2023-04-21T06:33:46.594Z,11.10
2023-04-21T06:36:16.188Z,11.15
2023-04-21T06:38:46.032Z,11.25
2023-04-21T06:41:14.285Z,11.32
2023-04-21T06:43:45.564Z,11.37
2023-04-21T06:46:14.700Z,11.34
2023-04-21T06:48:42.873Z,11.44
2023-04-21T06:51:11.168Z,11.49
2023-04-21T06:53:39.482Z,11.54
2023-04-21T06:56:07.816Z,11.63
2023-04-21T06:58:36.204Z,11.86
2023-04-21T07:01:04.909Z,11.93
2023-04-21T07:03:33.249Z,11.85
2023-04-21T07:06:01.586Z,11.77
2023-04-21T07:08:30.327Z,11.75
2023-04-21T07:10:59.014Z,11.73
2023-04-21T07:13:27.385Z,11.69
2023-04-21T07:15:55.522Z,11.68
2023-04-21T07:18:23.967Z,11.90
2023-04-21T07:20:52.552Z,11.91
2023-04-21T07:23:23.493Z,11.80
2023-04-21T07:25:54.774Z,11.75
2023-04-21T07:28:23.286Z,11.74
2023-04-21T07:30:51.683Z,11.76
2023-04-21T07:33:20.382Z,11.85
2023-04-21T07:35:48.807Z,11.91
2023-04-21T07:38:17.350Z,12.05
2023-04-21T07:40:46.628Z,12.10
2023-04-21T07:43:14.955Z,12.16
2023-04-21T07:45:43.775Z,12.10
2023-04-21T07:48:12.283Z,12.10
2023-04-21T07:50:41.751Z,12.14
2023-04-21T07:53:09.878Z,12.15
2023-04-21T07:55:38.258Z,12.26
2023-04-21T07:58:06.936Z,12.44
2023-04-21T08:00:35.313Z,12.59
2023-04-21T08:03:06.476Z,12.61
2023-04-21T08:05:38.848Z,12.77
2023-04-21T08:08:09.527Z,12.87
2023-04-21T08:10:37.842Z,12.89
2023-04-21T08:13:06.722Z,12.88
2023-04-21T08:15:35.160Z,12.81
2023-04-21T08:18:03.480Z,12.73
2023-04-21T08:20:32.621Z,12.74
2023-04-21T08:23:14.978Z,12.73
2023-04-21T08:25:59.081Z,12.72
2023-04-21T08:28:32.520Z,12.75
2023-04-21T08:31:02.506Z,12.79
2023-04-21T08:33:41.349Z,12.56
2023-04-21T08:38:54.967Z,12.54
2023-04-21T08:41:26.066Z,12.53
2023-04-21T08:43:54.292Z,12.49
2023-04-21T08:46:26.854Z,12.63
2023-04-21T08:48:57.185Z,12.73
2023-04-21T08:51:28.903Z,12.78
2023-04-21T08:53:57.838Z,12.77
2023-04-21T08:56:28.870Z,12.84
2023-04-21T08:58:57.132Z,12.81
2023-04-21T09:01:25.781Z,12.95
2023-04-21T09:03:54.729Z,13.09
2023-04-21T09:06:23.451Z,13.09
2023-04-21T09:08:57.972Z,12.91
2023-04-21T09:11:26.441Z,13.04
2023-04-21T09:14:05.378Z,13.08
2023-04-21T09:16:35.368Z,13.08
2023-04-21T09:19:03.669Z,13.01
2023-04-21T09:21:32.490Z,13.10
2023-04-21T09:24:04.543Z,13.20
2023-04-21T09:26:37.182Z,13.03
2023-04-21T09:29:09.218Z,13.04
2023-04-21T09:31:41.406Z,13.07
2023-04-21T09:34:46.107Z,13.03
2023-04-21T09:37:18.971Z,13.01
2023-04-21T09:40:03.449Z,13.13
2023-04-21T09:42:39.264Z,13.09
2023-04-21T09:47:43.998Z,13.13
2023-04-21T09:50:13.277Z,13.19
2023-04-21T09:52:42.026Z,13.35
2023-04-21T09:55:13.835Z,13.38
2023-04-21T09:57:43.284Z,13.29
2023-04-21T10:00:12.774Z,13.45
2023-04-21T10:02:45.386Z,13.44
2023-04-21T10:05:13.856Z,13.44
2023-04-21T10:07:42.505Z,13.42
2023-04-21T10:10:21.843Z,13.45
2023-04-21T10:12:51.375Z,13.50
2023-04-21T10:15:36.655Z,13.48
2023-04-21T10:18:18.680Z,13.54
2023-04-21T10:21:09.537Z,13.42
2023-04-21T10:23:54.612Z,13.35
2023-04-21T10:26:35.377Z,13.29
2023-04-21T10:29:07.140Z,13.31
2023-04-21T10:31:57.228Z,13.38
2023-04-21T10:34:25.773Z,13.26
2023-04-21T10:36:56.611Z,13.18
2023-04-21T10:39:40.793Z,13.06
2023-04-21T10:42:24.750Z,13.05
2023-04-21T10:44:58.998Z,13.04
2023-04-21T10:47:31.729Z,13.16
2023-04-21T10:50:03.262Z,13.05
2023-04-21T10:52:36.158Z,13.23
2023-04-21T10:55:10.972Z,13.11
2023-04-21T10:57:42.367Z,13.11
2023-04-21T11:00:12.465Z,13.23
2023-04-21T11:02:43.402Z,13.31
2023-04-21T11:05:24.164Z,13.35
2023-04-21T11:08:03.494Z,13.44
2023-04-21T11:10:49.590Z,13.50
2023-04-21T11:13:21.688Z,13.49
2023-04-21T11:16:05.444Z,13.42
2023-04-21T11:18:38.700Z,13.12
2023-04-21T11:21:11.654Z,13.13
2023-04-21T11:23:48.441Z,13.08
2023-04-21T11:26:17.297Z,13.00
2023-04-21T11:28:48.499Z,12.95
2023-04-21T11:31:16.813Z,12.97
2023-04-21T11:33:45.370Z,13.00
2023-04-21T11:36:14.544Z,13.00
2023-04-21T11:38:43.109Z,12.99
2023-04-21T11:41:11.562Z,13.00
2023-04-21T11:43:40.055Z,13.02
2023-04-21T11:46:33.653Z,13.08
2023-04-21T11:49:26.029Z,13.08
2023-04-21T11:52:07.596Z,13.04
2023-04-21T11:54:44.128Z,13.08
2023-04-21T11:57:19.568Z,13.15
2023-04-21T11:59:48.115Z,13.02
2023-04-21T12:02:23.694Z,13.03
2023-04-21T12:05:12.001Z,13.10
2023-04-21T12:07:44.684Z,13.20
2023-04-21T12:10:22.633Z,13.27
2023-04-21T12:12:57.713Z,13.37
2023-04-21T12:15:26.174Z,13.40
2023-04-21T12:17:54.462Z,13.47
2023-04-21T12:20:28.966Z,13.52
2023-04-21T12:23:00.354Z,13.54
2023-04-21T12:25:30.533Z,13.55
2023-04-21T12:28:02.629Z,13.54
2023-04-21T12:30:31.251Z,13.55
2023-04-21T12:33:06.390Z,13.56
2023-04-21T12:35:35.750Z,13.65
2023-04-21T12:38:04.033Z,13.77
2023-04-21T12:40:32.871Z,13.83
2023-04-21T12:43:01.340Z,13.79
2023-04-21T12:45:29.841Z,13.82
2023-04-21T12:47:58.412Z,13.78
2023-04-21T12:50:26.635Z,13.82
2023-04-21T12:52:56.114Z,13.63
2023-04-21T12:55:24.280Z,13.56
2023-04-21T12:57:55.364Z,13.43
2023-04-21T13:00:23.604Z,13.32
2023-04-21T13:02:52.007Z,13.19
2023-04-21T13:05:20.417Z,13.13
2023-04-21T13:07:49.423Z,13.16
2023-04-21T13:10:18.104Z,13.27
2023-04-21T13:12:46.248Z,13.23
2023-04-21T13:15:14.483Z,13.05
2023-04-21T13:17:42.751Z,13.09
2023-04-21T13:20:12.015Z,13.16
2023-04-21T13:22:41.298Z,13.10
2023-04-21T13:25:09.941Z,13.13
2023-04-21T13:27:40.080Z,13.16
2023-04-21T13:30:11.111Z,12.97
2023-04-21T13:32:39.993Z,13.01
2023-04-21T13:35:10.825Z,12.96
2023-04-21T13:37:40.605Z,12.86
2023-04-21T13:40:10.812Z,12.98
2023-04-21T13:42:39.649Z,13.03
2023-04-21T13:45:11.081Z,13.26
2023-04-21T13:47:40.826Z,13.22
2023-04-21T13:50:09.673Z,13.45
2023-04-21T13:52:37.956Z,13.43
2023-04-21T13:55:06.630Z,13.36
2023-04-21T13:57:34.863Z,13.24
2023-04-21T14:00:06.735Z,13.22
2023-04-21T14:02:36.235Z,13.37
2023-04-21T14:05:06.420Z,13.42
2023-04-21T14:07:37.740Z,13.48
2023-04-21T14:10:06.957Z,13.36
2023-04-21T14:12:35.327Z,13.41
2023-04-21T14:15:05.915Z,13.48
2023-04-21T14:17:34.286Z,13.35
2023-04-21T14:20:02.698Z,13.29
2023-04-21T14:22:31.379Z,13.17
2023-04-21T14:24:59.809Z,13.18
2023-04-21T14:27:28.476Z,13.17
2023-04-21T14:29:59.489Z,13.19
2023-04-21T14:32:27.751Z,13.20
2023-04-21T14:34:58.797Z,13.18
2023-04-21T14:37:27.121Z,13.16
2023-04-21T14:39:55.437Z,13.09
2023-04-21T14:42:23.572Z,13.13
2023-04-21T14:44:51.733Z,12.96
2023-04-21T14:47:20.367Z,12.88
2023-04-21T14:49:55.150Z,12.92
2023-04-21T14:52:27.453Z,12.99
2023-04-21T14:54:55.536Z,12.95
2023-04-21T14:57:24.209Z,13.02
2023-04-21T14:59:52.532Z,13.07
2023-04-21T15:02:21.613Z,13.06
2023-04-21T15:04:50.727Z,13.02
2023-04-21T15:07:23.775Z,13.11
2023-04-21T15:09:53.424Z,13.06
2023-04-21T15:12:22.394Z,13.10
2023-04-21T15:14:50.974Z,13.06
2023-04-21T15:17:19.243Z,13.00
2023-04-21T15:19:47.599Z,12.97
2023-04-21T15:22:16.316Z,12.95
2023-04-21T15:24:44.545Z,13.00
2023-04-21T15:27:12.710Z,13.00
2023-04-21T15:29:41.135Z,12.96
2023-04-21T15:32:09.837Z,12.99
2023-04-21T15:34:38.270Z,12.82
2023-04-21T15:37:06.488Z,12.84
2023-04-21T15:39:34.933Z,12.85
2023-04-21T15:42:04.638Z,12.84
2023-04-21T15:44:34.404Z,12.78
2023-04-21T15:47:03.566Z,12.87
2023-04-21T15:49:31.924Z,12.89
2023-04-21T15:52:00.237Z,12.85
2023-04-21T15:54:28.665Z,12.92
2023-04-21T15:56:57.844Z,12.97
2023-04-21T15:59:26.403Z,13.12
2023-04-21T16:01:57.214Z,13.25
2023-04-21T16:04:25.622Z,13.06
2023-04-21T16:06:54.170Z,12.88
2023-04-21T16:09:22.663Z,12.93
2023-04-21T16:11:50.893Z,12.93
2023-04-21T16:14:19.555Z,12.78
2023-04-21T16:16:47.720Z,12.74
2023-04-21T16:19:16.529Z,12.70
2023-04-21T16:21:45.049Z,12.49
2023-04-21T16:24:13.681Z,12.59
2023-04-21T16:26:42.114Z,12.47
2023-04-21T16:29:10.570Z,12.38
2023-04-21T16:31:38.853Z,12.37
2023-04-21T16:34:07.033Z,12.34
2023-04-21T16:36:35.534Z,12.39
2023-04-21T16:39:03.868Z,12.48
2023-04-21T16:41:32.630Z,12.48
2023-04-21T16:44:00.899Z,12.50
2023-04-21T16:46:29.691Z,12.54
2023-04-21T16:48:58.026Z,12.55
2023-04-21T16:51:28.711Z,12.50
2023-04-21T16:53:57.136Z,12.46
2023-04-21T16:56:25.226Z,12.41
2023-04-21T16:58:54.311Z,12.25
2023-04-21T17:01:22.783Z,12.37
2023-04-21T17:03:51.174Z,12.40
2023-04-21T17:06:21.471Z,12.39
2023-04-21T17:08:49.880Z,12.33
2023-04-21T17:11:18.054Z,12.28
2023-04-21T17:13:46.279Z,12.28
2023-04-21T17:16:14.453Z,12.29
2023-04-21T17:18:42.729Z,12.30
2023-04-21T17:21:11.630Z,12.38
2023-04-21T17:23:39.891Z,12.25
2023-04-21T17:26:10.709Z,12.06
2023-04-21T17:28:41.113Z,12.14
2023-04-21T17:31:15.930Z,12.14
2023-04-21T17:33:45.219Z,12.05
2023-04-21T17:36:13.473Z,12.12
2023-04-21T17:38:43.086Z,12.26
2023-04-21T17:41:11.778Z,12.35
2023-04-21T17:43:40.137Z,12.40
2023-04-21T17:46:08.586Z,12.45
2023-04-21T17:48:36.821Z,12.52
2023-04-21T17:51:05.016Z,12.60
2023-04-21T17:53:33.416Z,12.61
2023-04-21T17:56:01.738Z,12.44
2023-04-21T17:58:30.565Z,12.36
2023-04-21T18:00:59.528Z,12.25
2023-04-21T18:03:28.520Z,12.12
2023-04-21T18:05:57.142Z,12.16
2023-04-21T18:08:25.768Z,12.17
2023-04-21T18:10:55.090Z,12.21
2023-04-21T18:13:23.315Z,12.29
2023-04-21T18:15:51.637Z,12.27
2023-04-21T18:18:20.069Z,12.14
2023-04-21T18:20:48.566Z,12.20
2023-04-21T18:23:16.835Z,12.17
2023-04-21T18:25:45.148Z,12.13
2023-04-21T18:28:13.523Z,12.03
2023-04-21T18:30:42.331Z,12.06
2023-04-21T18:33:11.871Z,12.04
2023-04-21T18:35:41.393Z,12.04
2023-04-21T18:38:11.972Z,12.10
2023-04-21T18:40:41.137Z,12.04
2023-04-21T18:43:12.382Z,11.82
2023-04-21T18:45:40.642Z,11.80
2023-04-21T18:48:09.066Z,11.78
2023-04-21T18:50:40.957Z,11.82
2023-04-21T18:53:09.435Z,11.94
2023-04-21T18:55:37.915Z,11.99
2023-04-21T18:58:07.227Z,12.02
2023-04-21T19:00:39.297Z,12.06
2023-04-21T19:03:07.874Z,12.09
2023-04-21T19:05:37.002Z,11.97
2023-04-21T19:08:06.102Z,12.00
2023-04-21T19:10:35.862Z,12.07
2023-04-21T19:13:04.590Z,12.01
2023-04-21T19:15:33.000Z,12.12
2023-04-21T19:18:01.347Z,12.12
2023-04-21T19:20:30.103Z,11.97
2023-04-21T19:22:58.449Z,12.06
2023-04-21T19:25:26.713Z,12.09
2023-04-21T19:27:55.108Z,11.99
2023-04-21T19:30:23.444Z,12.05
2023-04-21T19:32:52.089Z,12.09
2023-04-21T19:35:21.336Z,12.05
2023-04-21T19:37:49.787Z,12.10
2023-04-21T19:40:19.056Z,12.05
2023-04-21T19:42:47.554Z,12.06
2023-04-21T19:45:16.903Z,11.99
2023-04-21T19:47:45.836Z,11.98
2023-04-21T19:50:14.087Z,12.06
2023-04-21T19:52:42.303Z,12.07
2023-04-21T19:55:10.684Z,12.16
2023-04-21T19:57:39.094Z,12.10
2023-04-21T20:00:11.491Z,12.00
2023-04-21T20:02:43.809Z,11.99
2023-04-21T20:05:12.314Z,11.96
2023-04-21T20:07:40.823Z,11.95
2023-04-21T20:10:09.696Z,11.89
2023-04-21T20:12:38.346Z,11.74
2023-04-21T20:15:07.292Z,11.67
2023-04-21T20:17:37.117Z,11.77
2023-04-21T20:20:07.012Z,11.87
2023-04-21T20:22:36.058Z,11.87
2023-04-21T20:25:04.993Z,11.96
2023-04-21T20:27:33.965Z,11.92
2023-04-21T20:30:02.060Z,12.00
2023-04-21T20:32:30.504Z,11.98
2023-04-21T20:34:59.785Z,12.02
2023-04-21T20:37:28.629Z,12.06
2023-04-21T20:39:57.241Z,12.11
2023-04-21T20:42:26.021Z,12.11
2023-04-21T20:44:54.748Z,12.18
2023-04-21T20:47:22.840Z,12.31
2023-04-21T20:49:51.291Z,12.30
2023-04-21T20:52:19.500Z,12.24
2023-04-21T20:54:47.612Z,12.11
2023-04-21T20:57:15.881Z,12.04
2023-04-21T20:59:44.368Z,12.10
2023-04-21T21:02:12.660Z,12.07
2023-04-21T21:04:41.232Z,12.06
2023-04-21T21:07:09.387Z,12.12
2023-04-21T21:09:38.011Z,12.19
2023-04-21T21:12:06.697Z,12.12
2023-04-21T21:14:34.976Z,12.20
2023-04-21T21:17:03.378Z,12.22
2023-04-21T21:19:32.590Z,12.17
2023-04-21T21:22:00.901Z,12.21
2023-04-21T21:24:29.309Z,12.26
2023-04-21T21:26:58.336Z,12.22
2023-04-21T21:29:26.660Z,12.25
2023-04-21T21:31:54.814Z,12.25
2023-04-21T21:34:22.973Z,12.27
2023-04-21T21:36:51.104Z,12.31
2023-04-21T21:39:19.366Z,12.20
2023-04-21T21:41:47.952Z,12.23
2023-04-21T21:44:16.068Z,12.26
2023-04-21T21:46:44.221Z,12.14
2023-04-21T21:49:12.419Z,12.20
2023-04-21T21:51:40.894Z,12.06
2023-04-21T21:54:08.997Z,11.95
2023-04-21T21:56:37.203Z,11.93
2023-04-21T21:59:05.838Z,11.96
2023-04-21T22:01:34.083Z,12.02
2023-04-21T22:04:02.373Z,11.99
2023-04-21T22:06:35.994Z,11.99
2023-04-21T22:09:05.170Z,11.98
2023-04-21T22:11:33.725Z,11.89
2023-04-21T22:14:14.539Z,11.88
2023-04-21T22:16:50.774Z,11.95
2023-04-21T22:19:19.192Z,11.93
2023-04-21T22:21:47.469Z,11.92
2023-04-21T22:24:15.657Z,11.83
2023-04-21T22:26:44.037Z,11.90
2023-04-21T22:29:12.200Z,11.86
2023-04-21T22:31:40.624Z,11.84
2023-04-21T22:34:08.764Z,11.84
2023-04-21T22:36:37.307Z,11.86
2023-04-21T22:39:05.487Z,11.93
2023-04-21T22:41:33.705Z,11.91
2023-04-21T22:44:01.840Z,11.95
2023-04-21T22:46:33.796Z,11.95
2023-04-21T22:49:03.382Z,11.94
2023-04-21T22:51:32.751Z,11.97
2023-04-21T22:54:01.066Z,12.03
2023-04-21T22:56:32.309Z,11.95
2023-04-21T22:59:00.604Z,11.92
2023-04-21T23:01:29.381Z,11.82
2023-04-21T23:03:57.635Z,11.75
2023-04-21T23:06:26.663Z,11.71
2023-04-21T23:08:54.767Z,11.64
2023-04-21T23:11:22.860Z,11.69
2023-04-21T23:13:51.131Z,11.65
2023-04-21T23:16:19.388Z,11.69
2023-04-21T23:18:47.737Z,11.63
2023-04-21T23:21:16.653Z,11.62
2023-04-21T23:23:44.754Z,11.62
2023-04-21T23:26:12.796Z,11.53
2023-04-21T23:28:40.928Z,11.48
2023-04-21T23:31:09.332Z,11.52
2023-04-21T23:33:37.510Z,11.63
2023-04-21T23:36:06.216Z,11.68
2023-04-21T23:38:34.499Z,11.71
2023-04-21T23:41:03.165Z,11.63
2023-04-21T23:43:34.663Z,11.51
2023-04-21T23:46:03.519Z,11.50
2023-04-21T23:48:32.362Z,11.44
2023-04-21T23:51:00.820Z,11.36
2023-04-21T23:53:29.453Z,11.34
2023-04-21T23:55:57.576Z,11.34
2023-04-21T23:58:25.847Z,11.39
